sensor_id;sensor_type;location;lat;lon;timestamp;temperature;humidity
33207;DHT22;19565;46.602;11.534;2022-11-04T00:02:06;13.10;99.90
33207;DHT22;19565;46.602;11.534;2022-11-04T00:04:34;13.10;99.90
33207;DHT22;19565;46.602;11.534;2022-11-04T00:07:04;13.10;99.90
33207;DHT22;19565;46.602;11.534;2022-11-04T00:09:52;13.10;99.90
33207;DHT22;19565;46.602;11.534;2022-11-04T00:12:20;13.10;99.90
33207;DHT22;19565;46.602;11.534;2022-11-04T00:14:50;13.10;99.90
33207;DHT22;19565;46.602;11.534;2022-11-04T00:17:19;13.00;99.90
33207;DHT22;19565;46.602;11.534;2022-11-04T00:19:49;13.00;99.90
33207;DHT22;19565;46.602;11.534;2022-11-04T00:22:37;13.10;99.90
33207;DHT22;19565;46.602;11.534;2022-11-04T00:25:23;13.00;99.90
33207;DHT22;19565;46.602;11.534;2022-11-04T00:28:11;13.10;99.90
33207;DHT22;19565;46.602;11.534;2022-11-04T00:30:58;13.00;99.90
33207;DHT22;19565;46.602;11.534;2022-11-04T00:33:49;13.00;99.90
33207;DHT22;19565;46.602;11.534;2022-11-04T00:36:16;13.00;99.90
33207;DHT22;19565;46.602;11.534;2022-11-04T00:38:46;13.00;99.90
33207;DHT22;19565;46.602;11.534;2022-11-04T00:41:14;13.00;99.90
33207;DHT22;19565;46.602;11.534;2022-11-04T00:43:57;13.00;99.90
33207;DHT22;19565;46.602;11.534;2022-11-04T00:46:27;13.00;99.90
33207;DHT22;19565;46.602;11.534;2022-11-04T00:48:56;13.00;99.90
33207;DHT22;19565;46.602;11.534;2022-11-04T00:51:24;13.00;99.90
33207;DHT22;19565;46.602;11.534;2022-11-04T00:53:55;13.00;99.90
33207;DHT22;19565;46.602;11.534;2022-11-04T00:56:24;13.00;99.90
33207;DHT22;19565;46.602;11.534;2022-11-04T00:58:52;13.00;99.90
33207;DHT22;19565;46.602;11.534;2022-11-04T01:01:21;13.00;99.90
33207;DHT22;19565;46.602;11.534;2022-11-04T01:03:52;13.00;99.90
33207;DHT22;19565;46.602;11.534;2022-11-04T01:06:22;13.00;99.90
33207;DHT22;19565;46.602;11.534;2022-11-04T01:08:56;13.00;99.90
33207;DHT22;19565;46.602;11.534;2022-11-04T01:11:25;13.00;99.90
33207;DHT22;19565;46.602;11.534;2022-11-04T01:13:55;13.00;99.90
33207;DHT22;19565;46.602;11.534;2022-11-04T01:16:24;13.00;99.90
33207;DHT22;19565;46.602;11.534;2022-11-04T01:18:58;13.10;99.90
33207;DHT22;19565;46.602;11.534;2022-11-04T01:21:26;13.10;99.90
33207;DHT22;19565;46.602;11.534;2022-11-04T01:23:56;13.10;99.90
33207;DHT22;19565;46.602;11.534;2022-11-04T01:26:25;13.10;99.90
33207;DHT22;19565;46.602;11.534;2022-11-04T01:28:55;13.00;99.90
33207;DHT22;19565;46.602;11.534;2022-11-04T01:31:25;13.00;99.90
33207;DHT22;19565;46.602;11.534;2022-11-04T01:33:54;13.00;99.90
33207;DHT22;19565;46.602;11.534;2022-11-04T01:36:23;12.90;99.90
33207;DHT22;19565;46.602;11.534;2022-11-04T01:38:53;12.80;99.90
33207;DHT22;19565;46.602;11.534;2022-11-04T01:41:24;12.80;99.90
33207;DHT22;19565;46.602;11.534;2022-11-04T01:43:57;12.90;99.90
33207;DHT22;19565;46.602;11.534;2022-11-04T01:46:31;12.90;99.90
33207;DHT22;19565;46.602;11.534;2022-11-04T01:49:10;12.90;99.90
33207;DHT22;19565;46.602;11.534;2022-11-04T01:51:45;12.90;99.90
33207;DHT22;19565;46.602;11.534;2022-11-04T01:54:15;12.90;99.90
33207;DHT22;19565;46.602;11.534;2022-11-04T01:56:46;12.90;99.90
33207;DHT22;19565;46.602;11.534;2022-11-04T01:59:19;12.80;99.90
33207;DHT22;19565;46.602;11.534;2022-11-04T02:01:48;12.80;99.90
33207;DHT22;19565;46.602;11.534;2022-11-04T02:04:17;12.70;99.90
33207;DHT22;19565;46.602;11.534;2022-11-04T02:06:57;12.70;99.90
33207;DHT22;19565;46.602;11.534;2022-11-04T02:09:29;12.60;99.90
33207;DHT22;19565;46.602;11.534;2022-11-04T02:11:59;12.70;99.90
33207;DHT22;19565;46.602;11.534;2022-11-04T02:14:46;12.70;99.90
33207;DHT22;19565;46.602;11.534;2022-11-04T02:17:28;12.70;99.90
33207;DHT22;19565;46.602;11.534;2022-11-04T02:26:50;12.70;99.90
33207;DHT22;19565;46.602;11.534;2022-11-04T02:29:32;12.60;99.90
33207;DHT22;19565;46.602;11.534;2022-11-04T02:32:11;12.60;99.90
33207;DHT22;19565;46.602;11.534;2022-11-04T02:34:49;12.60;99.90
33207;DHT22;19565;46.602;11.534;2022-11-04T02:37:27;12.60;99.90
33207;DHT22;19565;46.602;11.534;2022-11-04T02:40:06;12.60;99.90
33207;DHT22;19565;46.602;11.534;2022-11-04T02:42:41;12.50;99.90
33207;DHT22;19565;46.602;11.534;2022-11-04T02:45:18;12.40;99.90
33207;DHT22;19565;46.602;11.534;2022-11-04T02:47:52;12.40;99.90
33207;DHT22;19565;46.602;11.534;2022-11-04T02:50:26;12.30;99.90
33207;DHT22;19565;46.602;11.534;2022-11-04T02:53:00;12.30;99.90
33207;DHT22;19565;46.602;11.534;2022-11-04T02:55:34;12.30;99.90
33207;DHT22;19565;46.602;11.534;2022-11-04T02:58:07;12.30;99.90
33207;DHT22;19565;46.602;11.534;2022-11-04T03:00:38;12.30;99.90
33207;DHT22;19565;46.602;11.534;2022-11-04T03:03:11;12.20;99.90
33207;DHT22;19565;46.602;11.534;2022-11-04T03:05:43;12.20;99.90
33207;DHT22;19565;46.602;11.534;2022-11-04T03:08:17;12.10;99.90
33207;DHT22;19565;46.602;11.534;2022-11-04T03:10:51;12.10;99.90
33207;DHT22;19565;46.602;11.534;2022-11-04T03:13:24;12.20;99.90
33207;DHT22;19565;46.602;11.534;2022-11-04T03:15:59;12.20;99.90
33207;DHT22;19565;46.602;11.534;2022-11-04T03:18:33;12.20;99.90
33207;DHT22;19565;46.602;11.534;2022-11-04T03:21:06;12.20;99.90
33207;DHT22;19565;46.602;11.534;2022-11-04T03:23:37;12.20;99.90
33207;DHT22;19565;46.602;11.534;2022-11-04T03:26:14;12.20;99.90
33207;DHT22;19565;46.602;11.534;2022-11-04T03:28:49;12.30;99.90
33207;DHT22;19565;46.602;11.534;2022-11-04T03:31:24;12.30;99.90
33207;DHT22;19565;46.602;11.534;2022-11-04T03:33:57;12.30;99.90
33207;DHT22;19565;46.602;11.534;2022-11-04T03:36:26;12.30;99.90
33207;DHT22;19565;46.602;11.534;2022-11-04T03:38:56;12.30;99.90
33207;DHT22;19565;46.602;11.534;2022-11-04T03:41:30;12.30;99.90
33207;DHT22;19565;46.602;11.534;2022-11-04T03:44:00;12.30;99.90
33207;DHT22;19565;46.602;11.534;2022-11-04T03:46:30;12.20;99.90
33207;DHT22;19565;46.602;11.534;2022-11-04T03:48:58;12.20;99.90
33207;DHT22;19565;46.602;11.534;2022-11-04T03:51:27;12.30;99.90
33207;DHT22;19565;46.602;11.534;2022-11-04T03:53:57;12.30;99.90
33207;DHT22;19565;46.602;11.534;2022-11-04T03:56:47;12.20;99.90
33207;DHT22;19565;46.602;11.534;2022-11-04T03:59:37;12.20;99.90
33207;DHT22;19565;46.602;11.534;2022-11-04T04:02:15;12.20;99.90
33207;DHT22;19565;46.602;11.534;2022-11-04T04:04:50;12.20;99.90
33207;DHT22;19565;46.602;11.534;2022-11-04T04:07:30;12.20;99.90
33207;DHT22;19565;46.602;11.534;2022-11-04T04:10:03;12.20;99.90
33207;DHT22;19565;46.602;11.534;2022-11-04T04:12:56;12.30;99.90
33207;DHT22;19565;46.602;11.534;2022-11-04T04:15:28;12.20;99.90
33207;DHT22;19565;46.602;11.534;2022-11-04T04:18:01;12.30;99.90
33207;DHT22;19565;46.602;11.534;2022-11-04T04:20:31;12.30;99.90
33207;DHT22;19565;46.602;11.534;2022-11-04T04:23:03;12.40;99.90
33207;DHT22;19565;46.602;11.534;2022-11-04T04:25:57;12.40;99.90
33207;DHT22;19565;46.602;11.534;2022-11-04T04:28:45;12.40;99.90
33207;DHT22;19565;46.602;11.534;2022-11-04T04:31:15;12.50;99.90
33207;DHT22;19565;46.602;11.534;2022-11-04T04:34:07;12.40;99.90
33207;DHT22;19565;46.602;11.534;2022-11-04T04:36:44;12.50;99.90
33207;DHT22;19565;46.602;11.534;2022-11-04T04:39:16;12.50;99.90
33207;DHT22;19565;46.602;11.534;2022-11-04T04:42:05;12.50;99.90
33207;DHT22;19565;46.602;11.534;2022-11-04T04:44:52;12.40;99.90
33207;DHT22;19565;46.602;11.534;2022-11-04T04:47:42;12.40;99.90
33207;DHT22;19565;46.602;11.534;2022-11-04T04:50:15;12.40;99.90
33207;DHT22;19565;46.602;11.534;2022-11-04T04:52:45;12.50;99.90
33207;DHT22;19565;46.602;11.534;2022-11-04T04:55:15;12.60;99.90
33207;DHT22;19565;46.602;11.534;2022-11-04T04:57:43;12.50;99.90
33207;DHT22;19565;46.602;11.534;2022-11-04T05:00:14;12.40;99.90
33207;DHT22;19565;46.602;11.534;2022-11-04T05:02:43;12.40;99.90
33207;DHT22;19565;46.602;11.534;2022-11-04T05:05:13;12.50;99.90
33207;DHT22;19565;46.602;11.534;2022-11-04T05:07:46;12.60;99.90
33207;DHT22;19565;46.602;11.534;2022-11-04T05:10:16;12.60;99.90
33207;DHT22;19565;46.602;11.534;2022-11-04T05:12:44;12.50;99.90
33207;DHT22;19565;46.602;11.534;2022-11-04T05:15:30;12.50;99.90
33207;DHT22;19565;46.602;11.534;2022-11-04T05:18:00;12.60;99.90
33207;DHT22;19565;46.602;11.534;2022-11-04T05:20:30;12.60;99.90
33207;DHT22;19565;46.602;11.534;2022-11-04T05:23:00;12.70;99.90
33207;DHT22;19565;46.602;11.534;2022-11-04T05:25:28;12.70;99.90
33207;DHT22;19565;46.602;11.534;2022-11-04T05:27:58;12.70;99.90
33207;DHT22;19565;46.602;11.534;2022-11-04T05:30:28;12.70;99.90
33207;DHT22;19565;46.602;11.534;2022-11-04T05:32:56;12.70;99.90
33207;DHT22;19565;46.602;11.534;2022-11-04T05:35:32;12.70;99.90
33207;DHT22;19565;46.602;11.534;2022-11-04T05:38:01;12.60;99.90
33207;DHT22;19565;46.602;11.534;2022-11-04T05:40:29;12.60;99.90
33207;DHT22;19565;46.602;11.534;2022-11-04T05:42:58;12.60;99.90
33207;DHT22;19565;46.602;11.534;2022-11-04T05:45:27;12.60;99.90
33207;DHT22;19565;46.602;11.534;2022-11-04T05:47:59;12.50;99.90
33207;DHT22;19565;46.602;11.534;2022-11-04T05:50:28;12.60;99.90
33207;DHT22;19565;46.602;11.534;2022-11-04T05:52:59;12.60;99.90
33207;DHT22;19565;46.602;11.534;2022-11-04T05:55:27;12.60;99.90
33207;DHT22;19565;46.602;11.534;2022-11-04T05:57:56;12.60;99.90
33207;DHT22;19565;46.602;11.534;2022-11-04T06:00:26;12.60;99.90
33207;DHT22;19565;46.602;11.534;2022-11-04T06:02:56;12.60;99.90
33207;DHT22;19565;46.602;11.534;2022-11-04T06:05:25;12.60;99.90
33207;DHT22;19565;46.602;11.534;2022-11-04T06:07:54;12.60;99.90
33207;DHT22;19565;46.602;11.534;2022-11-04T06:10:24;12.60;99.90
33207;DHT22;19565;46.602;11.534;2022-11-04T06:12:53;12.60;99.90
33207;DHT22;19565;46.602;11.534;2022-11-04T06:15:21;12.60;99.90
33207;DHT22;19565;46.602;11.534;2022-11-04T06:17:49;12.60;99.90
33207;DHT22;19565;46.602;11.534;2022-11-04T06:20:17;12.50;99.90
33207;DHT22;19565;46.602;11.534;2022-11-04T06:22:46;12.50;99.90
33207;DHT22;19565;46.602;11.534;2022-11-04T06:25:14;12.30;99.90
33207;DHT22;19565;46.602;11.534;2022-11-04T06:27:44;12.20;99.90
33207;DHT22;19565;46.602;11.534;2022-11-04T06:30:12;12.10;99.90
33207;DHT22;19565;46.602;11.534;2022-11-04T06:32:40;11.80;99.90
33207;DHT22;19565;46.602;11.534;2022-11-04T06:35:09;11.70;99.90
33207;DHT22;19565;46.602;11.534;2022-11-04T06:37:37;11.60;99.90
33207;DHT22;19565;46.602;11.534;2022-11-04T06:40:06;11.60;99.90
33207;DHT22;19565;46.602;11.534;2022-11-04T06:42:35;11.50;99.90
33207;DHT22;19565;46.602;11.534;2022-11-04T06:45:05;11.50;99.90
33207;DHT22;19565;46.602;11.534;2022-11-04T06:47:34;11.40;99.90
33207;DHT22;19565;46.602;11.534;2022-11-04T06:50:02;11.40;99.90
33207;DHT22;19565;46.602;11.534;2022-11-04T06:52:31;11.30;99.90
33207;DHT22;19565;46.602;11.534;2022-11-04T06:55:08;11.10;99.90
33207;DHT22;19565;46.602;11.534;2022-11-04T06:57:36;10.90;99.90
33207;DHT22;19565;46.602;11.534;2022-11-04T07:00:07;10.90;99.90
33207;DHT22;19565;46.602;11.534;2022-11-04T07:02:36;10.70;99.90
33207;DHT22;19565;46.602;11.534;2022-11-04T07:05:05;10.80;99.90
33207;DHT22;19565;46.602;11.534;2022-11-04T07:07:33;10.70;99.90
33207;DHT22;19565;46.602;11.534;2022-11-04T07:10:02;10.60;99.90
33207;DHT22;19565;46.602;11.534;2022-11-04T07:12:30;10.60;99.90
33207;DHT22;19565;46.602;11.534;2022-11-04T07:14:58;10.50;99.90
33207;DHT22;19565;46.602;11.534;2022-11-04T07:17:28;10.50;99.90
33207;DHT22;19565;46.602;11.534;2022-11-04T07:19:56;10.50;99.90
33207;DHT22;19565;46.602;11.534;2022-11-04T07:22:24;10.40;99.90
33207;DHT22;19565;46.602;11.534;2022-11-04T07:24:52;10.40;99.90
33207;DHT22;19565;46.602;11.534;2022-11-04T07:27:20;10.40;99.90
33207;DHT22;19565;46.602;11.534;2022-11-04T07:29:48;10.40;99.90
33207;DHT22;19565;46.602;11.534;2022-11-04T07:32:16;10.50;99.90
33207;DHT22;19565;46.602;11.534;2022-11-04T07:34:45;10.50;99.90
33207;DHT22;19565;46.602;11.534;2022-11-04T07:37:13;10.50;99.90
33207;DHT22;19565;46.602;11.534;2022-11-04T07:39:41;10.50;99.90
33207;DHT22;19565;46.602;11.534;2022-11-04T07:42:09;10.50;99.90
33207;DHT22;19565;46.602;11.534;2022-11-04T07:44:38;10.60;99.90
33207;DHT22;19565;46.602;11.534;2022-11-04T07:47:06;10.50;99.90
33207;DHT22;19565;46.602;11.534;2022-11-04T07:49:34;10.50;99.90
33207;DHT22;19565;46.602;11.534;2022-11-04T07:52:04;10.50;99.90
33207;DHT22;19565;46.602;11.534;2022-11-04T07:54:33;10.50;99.90
33207;DHT22;19565;46.602;11.534;2022-11-04T07:57:01;10.60;99.90
33207;DHT22;19565;46.602;11.534;2022-11-04T07:59:29;10.60;99.90
33207;DHT22;19565;46.602;11.534;2022-11-04T08:01:58;10.50;99.90
33207;DHT22;19565;46.602;11.534;2022-11-04T08:04:27;10.60;99.90
33207;DHT22;19565;46.602;11.534;2022-11-04T08:06:55;10.50;99.90
33207;DHT22;19565;46.602;11.534;2022-11-04T08:09:25;10.50;99.90
33207;DHT22;19565;46.602;11.534;2022-11-04T08:11:53;10.60;99.90
33207;DHT22;19565;46.602;11.534;2022-11-04T08:14:21;10.80;99.90
33207;DHT22;19565;46.602;11.534;2022-11-04T08:16:49;11.00;99.90
33207;DHT22;19565;46.602;11.534;2022-11-04T08:19:17;11.10;99.90
33207;DHT22;19565;46.602;11.534;2022-11-04T08:21:45;11.20;99.90
33207;DHT22;19565;46.602;11.534;2022-11-04T08:24:14;11.30;99.90
33207;DHT22;19565;46.602;11.534;2022-11-04T08:26:43;11.20;99.90
33207;DHT22;19565;46.602;11.534;2022-11-04T08:29:12;11.30;99.90
33207;DHT22;19565;46.602;11.534;2022-11-04T08:31:40;11.30;99.90
33207;DHT22;19565;46.602;11.534;2022-11-04T08:34:08;11.30;99.90
33207;DHT22;19565;46.602;11.534;2022-11-04T08:36:37;11.30;99.90
33207;DHT22;19565;46.602;11.534;2022-11-04T08:39:07;11.30;99.90
33207;DHT22;19565;46.602;11.534;2022-11-04T08:41:38;11.20;99.90
33207;DHT22;19565;46.602;11.534;2022-11-04T08:44:09;11.20;99.90
33207;DHT22;19565;46.602;11.534;2022-11-04T08:46:38;11.20;99.90
33207;DHT22;19565;46.602;11.534;2022-11-04T08:49:07;11.20;99.90
33207;DHT22;19565;46.602;11.534;2022-11-04T08:51:42;11.10;99.90
33207;DHT22;19565;46.602;11.534;2022-11-04T08:54:12;11.00;99.90
33207;DHT22;19565;46.602;11.534;2022-11-04T08:56:41;11.10;99.90
33207;DHT22;19565;46.602;11.534;2022-11-04T08:59:11;11.10;99.90
33207;DHT22;19565;46.602;11.534;2022-11-04T09:01:41;11.00;99.90
33207;DHT22;19565;46.602;11.534;2022-11-04T09:04:10;11.10;99.90
33207;DHT22;19565;46.602;11.534;2022-11-04T09:06:42;11.10;99.90
33207;DHT22;19565;46.602;11.534;2022-11-04T09:09:14;11.10;99.90
33207;DHT22;19565;46.602;11.534;2022-11-04T09:11:43;11.20;99.90
33207;DHT22;19565;46.602;11.534;2022-11-04T09:14:13;11.20;99.90
33207;DHT22;19565;46.602;11.534;2022-11-04T09:16:44;11.20;99.90
33207;DHT22;19565;46.602;11.534;2022-11-04T09:19:12;11.20;99.90
33207;DHT22;19565;46.602;11.534;2022-11-04T09:21:41;11.10;99.90
33207;DHT22;19565;46.602;11.534;2022-11-04T09:24:09;11.10;99.90
33207;DHT22;19565;46.602;11.534;2022-11-04T09:26:38;11.10;99.90
33207;DHT22;19565;46.602;11.534;2022-11-04T09:29:08;11.00;99.90
33207;DHT22;19565;46.602;11.534;2022-11-04T09:31:38;11.00;99.90
33207;DHT22;19565;46.602;11.534;2022-11-04T09:34:06;11.00;99.90
33207;DHT22;19565;46.602;11.534;2022-11-04T09:36:35;11.00;99.90
33207;DHT22;19565;46.602;11.534;2022-11-04T09:39:04;11.00;99.90
33207;DHT22;19565;46.602;11.534;2022-11-04T09:41:49;11.00;99.90
33207;DHT22;19565;46.602;11.534;2022-11-04T09:44:23;11.00;99.90
33207;DHT22;19565;46.602;11.534;2022-11-04T09:46:58;10.90;99.90
33207;DHT22;19565;46.602;11.534;2022-11-04T09:49:31;10.90;99.90
33207;DHT22;19565;46.602;11.534;2022-11-04T09:52:03;10.90;99.90
33207;DHT22;19565;46.602;11.534;2022-11-04T09:54:40;10.80;99.90
33207;DHT22;19565;46.602;11.534;2022-11-04T09:57:16;10.80;99.90
33207;DHT22;19565;46.602;11.534;2022-11-04T09:59:45;10.90;99.90
33207;DHT22;19565;46.602;11.534;2022-11-04T10:02:26;10.90;99.90
33207;DHT22;19565;46.602;11.534;2022-11-04T10:05:03;10.80;99.90
33207;DHT22;19565;46.602;11.534;2022-11-04T10:07:44;10.80;99.90
33207;DHT22;19565;46.602;11.534;2022-11-04T10:10:18;10.80;99.90
33207;DHT22;19565;46.602;11.534;2022-11-04T10:12:59;10.80;99.90
33207;DHT22;19565;46.602;11.534;2022-11-04T10:15:52;10.80;99.90
33207;DHT22;19565;46.602;11.534;2022-11-04T10:18:39;10.70;99.90
33207;DHT22;19565;46.602;11.534;2022-11-04T10:21:20;10.70;99.90
33207;DHT22;19565;46.602;11.534;2022-11-04T10:23:59;10.70;99.90
33207;DHT22;19565;46.602;11.534;2022-11-04T10:26:37;10.70;99.90
33207;DHT22;19565;46.602;11.534;2022-11-04T10:29:13;10.80;99.90
33207;DHT22;19565;46.602;11.534;2022-11-04T10:31:43;10.80;99.90
33207;DHT22;19565;46.602;11.534;2022-11-04T10:34:23;10.80;99.90
33207;DHT22;19565;46.602;11.534;2022-11-04T10:36:54;10.90;99.90
33207;DHT22;19565;46.602;11.534;2022-11-04T10:39:26;10.90;99.90
33207;DHT22;19565;46.602;11.534;2022-11-04T10:41:55;10.90;99.90
33207;DHT22;19565;46.602;11.534;2022-11-04T10:44:26;10.90;99.90
33207;DHT22;19565;46.602;11.534;2022-11-04T10:47:03;10.80;99.90
33207;DHT22;19565;46.602;11.534;2022-11-04T10:49:55;10.80;99.90
33207;DHT22;19565;46.602;11.534;2022-11-04T10:52:45;10.80;99.90
33207;DHT22;19565;46.602;11.534;2022-11-04T10:55:25;10.80;99.90
33207;DHT22;19565;46.602;11.534;2022-11-04T10:57:56;10.90;99.90
33207;DHT22;19565;46.602;11.534;2022-11-04T11:00:36;11.00;99.90
33207;DHT22;19565;46.602;11.534;2022-11-04T11:03:22;11.00;99.90
33207;DHT22;19565;46.602;11.534;2022-11-04T11:05:52;11.00;99.90
33207;DHT22;19565;46.602;11.534;2022-11-04T11:08:28;11.00;99.90
33207;DHT22;19565;46.602;11.534;2022-11-04T11:10:56;10.90;99.90
33207;DHT22;19565;46.602;11.534;2022-11-04T11:13:33;11.00;99.90
33207;DHT22;19565;46.602;11.534;2022-11-04T11:16:10;11.00;99.90
33207;DHT22;19565;46.602;11.534;2022-11-04T11:18:39;11.10;99.90
33207;DHT22;19565;46.602;11.534;2022-11-04T11:21:14;11.10;99.90
33207;DHT22;19565;46.602;11.534;2022-11-04T11:23:47;11.00;99.90
33207;DHT22;19565;46.602;11.534;2022-11-04T11:26:18;11.00;99.90
33207;DHT22;19565;46.602;11.534;2022-11-04T11:28:49;11.00;99.90
33207;DHT22;19565;46.602;11.534;2022-11-04T11:31:24;11.00;99.90
33207;DHT22;19565;46.602;11.534;2022-11-04T11:33:55;11.00;99.90
33207;DHT22;19565;46.602;11.534;2022-11-04T11:36:27;10.90;99.90
33207;DHT22;19565;46.602;11.534;2022-11-04T11:39:00;11.00;99.90
33207;DHT22;19565;46.602;11.534;2022-11-04T11:41:31;10.90;99.90
33207;DHT22;19565;46.602;11.534;2022-11-04T11:44:06;11.00;99.90
33207;DHT22;19565;46.602;11.534;2022-11-04T11:46:49;10.80;99.90
33207;DHT22;19565;46.602;11.534;2022-11-04T11:49:25;10.90;99.90
33207;DHT22;19565;46.602;11.534;2022-11-04T11:52:16;11.00;99.90
33207;DHT22;19565;46.602;11.534;2022-11-04T11:54:49;11.10;99.90
33207;DHT22;19565;46.602;11.534;2022-11-04T11:57:31;11.10;99.90
33207;DHT22;19565;46.602;11.534;2022-11-04T12:00:03;11.00;99.90
33207;DHT22;19565;46.602;11.534;2022-11-04T12:02:58;10.80;99.90
33207;DHT22;19565;46.602;11.534;2022-11-04T12:05:34;10.70;99.90
33207;DHT22;19565;46.602;11.534;2022-11-04T12:08:44;10.80;99.90
33207;DHT22;19565;46.602;11.534;2022-11-04T12:11:47;10.90;99.90
33207;DHT22;19565;46.602;11.534;2022-11-04T12:14:18;10.80;99.90
33207;DHT22;19565;46.602;11.534;2022-11-04T12:16:54;10.90;99.90
33207;DHT22;19565;46.602;11.534;2022-11-04T12:19:34;11.10;99.90
33207;DHT22;19565;46.602;11.534;2022-11-04T12:22:13;11.20;99.90
33207;DHT22;19565;46.602;11.534;2022-11-04T12:24:50;11.20;99.90
33207;DHT22;19565;46.602;11.534;2022-11-04T12:27:27;11.30;99.90
33207;DHT22;19565;46.602;11.534;2022-11-04T12:30:03;11.30;99.90
33207;DHT22;19565;46.602;11.534;2022-11-04T12:32:46;11.40;99.90
33207;DHT22;19565;46.602;11.534;2022-11-04T12:35:29;11.40;99.90
33207;DHT22;19565;46.602;11.534;2022-11-04T12:38:19;11.50;99.90
33207;DHT22;19565;46.602;11.534;2022-11-04T12:40:57;11.50;99.90
33207;DHT22;19565;46.602;11.534;2022-11-04T12:43:56;11.50;99.90
33207;DHT22;19565;46.602;11.534;2022-11-04T12:46:36;11.50;99.90
33207;DHT22;19565;46.602;11.534;2022-11-04T12:49:29;11.40;99.90
33207;DHT22;19565;46.602;11.534;2022-11-04T12:52:06;11.40;99.90
33207;DHT22;19565;46.602;11.534;2022-11-04T12:54:45;11.10;99.90
33207;DHT22;19565;46.602;11.534;2022-11-04T12:57:21;11.00;99.90
33207;DHT22;19565;46.602;11.534;2022-11-04T13:00:03;10.90;99.90
33207;DHT22;19565;46.602;11.534;2022-11-04T13:02:36;10.80;99.90
33207;DHT22;19565;46.602;11.534;2022-11-04T13:05:23;10.80;99.90
33207;DHT22;19565;46.602;11.534;2022-11-04T13:07:56;11.00;99.90
33207;DHT22;19565;46.602;11.534;2022-11-04T13:10:33;11.00;99.90
33207;DHT22;19565;46.602;11.534;2022-11-04T13:13:07;10.80;99.90
33207;DHT22;19565;46.602;11.534;2022-11-04T13:15:42;10.80;99.90
33207;DHT22;19565;46.602;11.534;2022-11-04T13:18:15;11.00;99.90
33207;DHT22;19565;46.602;11.534;2022-11-04T13:20:49;11.00;99.90
33207;DHT22;19565;46.602;11.534;2022-11-04T13:23:22;11.10;99.90
33207;DHT22;19565;46.602;11.534;2022-11-04T13:25:53;11.10;99.90
33207;DHT22;19565;46.602;11.534;2022-11-04T13:28:23;11.00;99.90
33207;DHT22;19565;46.602;11.534;2022-11-04T13:31:01;11.00;99.90
33207;DHT22;19565;46.602;11.534;2022-11-04T13:33:37;10.90;99.90
33207;DHT22;19565;46.602;11.534;2022-11-04T13:36:18;10.80;99.90
33207;DHT22;19565;46.602;11.534;2022-11-04T13:38:51;10.60;99.90
33207;DHT22;19565;46.602;11.534;2022-11-04T13:41:40;10.70;99.90
33207;DHT22;19565;46.602;11.534;2022-11-04T13:44:22;10.60;99.90
33207;DHT22;19565;46.602;11.534;2022-11-04T13:46:54;10.50;99.90
33207;DHT22;19565;46.602;11.534;2022-11-04T13:49:26;10.50;99.90
33207;DHT22;19565;46.602;11.534;2022-11-04T13:52:04;10.60;99.90
33207;DHT22;19565;46.602;11.534;2022-11-04T13:54:36;10.70;99.90
33207;DHT22;19565;46.602;11.534;2022-11-04T13:57:13;10.80;99.90
33207;DHT22;19565;46.602;11.534;2022-11-04T14:00:20;10.90;99.90
33207;DHT22;19565;46.602;11.534;2022-11-04T14:02:49;10.80;99.90
33207;DHT22;19565;46.602;11.534;2022-11-04T14:08:22;10.50;99.90
33207;DHT22;19565;46.602;11.534;2022-11-04T14:11:17;10.40;99.90
33207;DHT22;19565;46.602;11.534;2022-11-04T14:14:15;10.40;99.90
33207;DHT22;19565;46.602;11.534;2022-11-04T14:16:45;10.50;99.90
33207;DHT22;19565;46.602;11.534;2022-11-04T14:22:29;10.60;99.90
33207;DHT22;19565;46.602;11.534;2022-11-04T14:25:00;10.60;99.90
33207;DHT22;19565;46.602;11.534;2022-11-04T14:27:37;10.70;99.90
33207;DHT22;19565;46.602;11.534;2022-11-04T14:32:55;10.70;99.90
33207;DHT22;19565;46.602;11.534;2022-11-04T14:35:27;10.60;99.90
33207;DHT22;19565;46.602;11.534;2022-11-04T14:37:58;10.70;99.90
33207;DHT22;19565;46.602;11.534;2022-11-04T14:40:44;10.70;99.90
33207;DHT22;19565;46.602;11.534;2022-11-04T14:43:26;10.80;99.90
33207;DHT22;19565;46.602;11.534;2022-11-04T14:45:58;10.80;99.90
33207;DHT22;19565;46.602;11.534;2022-11-04T14:48:29;10.80;99.90
33207;DHT22;19565;46.602;11.534;2022-11-04T14:50:58;10.60;99.90
33207;DHT22;19565;46.602;11.534;2022-11-04T14:53:31;10.60;99.90
33207;DHT22;19565;46.602;11.534;2022-11-04T14:56:04;10.70;99.90
33207;DHT22;19565;46.602;11.534;2022-11-04T14:58:32;10.80;99.90
33207;DHT22;19565;46.602;11.534;2022-11-04T15:01:02;10.90;99.90
33207;DHT22;19565;46.602;11.534;2022-11-04T15:03:35;11.00;99.90
33207;DHT22;19565;46.602;11.534;2022-11-04T15:06:26;11.00;99.90
33207;DHT22;19565;46.602;11.534;2022-11-04T15:09:20;11.00;99.90
33207;DHT22;19565;46.602;11.534;2022-11-04T15:11:48;10.90;99.90
33207;DHT22;19565;46.602;11.534;2022-11-04T15:14:35;11.00;99.90
33207;DHT22;19565;46.602;11.534;2022-11-04T15:17:03;11.00;99.90
33207;DHT22;19565;46.602;11.534;2022-11-04T15:19:34;10.90;99.90
33207;DHT22;19565;46.602;11.534;2022-11-04T15:22:04;10.90;99.90
33207;DHT22;19565;46.602;11.534;2022-11-04T15:24:34;10.90;99.90
33207;DHT22;19565;46.602;11.534;2022-11-04T15:27:04;10.90;99.90
33207;DHT22;19565;46.602;11.534;2022-11-04T15:29:32;10.80;99.90
33207;DHT22;19565;46.602;11.534;2022-11-04T15:32:02;10.80;99.90
33207;DHT22;19565;46.602;11.534;2022-11-04T15:34:33;10.70;99.90
33207;DHT22;19565;46.602;11.534;2022-11-04T15:37:03;10.70;99.90
33207;DHT22;19565;46.602;11.534;2022-11-04T15:39:35;10.50;99.90
33207;DHT22;19565;46.602;11.534;2022-11-04T15:42:12;10.20;99.90
33207;DHT22;19565;46.602;11.534;2022-11-04T15:44:58;10.30;99.90
33207;DHT22;19565;46.602;11.534;2022-11-04T15:47:27;10.10;99.90
33207;DHT22;19565;46.602;11.534;2022-11-04T15:50:13;10.30;99.90
33207;DHT22;19565;46.602;11.534;2022-11-04T15:52:48;10.40;99.90
33207;DHT22;19565;46.602;11.534;2022-11-04T15:55:21;10.40;99.90
33207;DHT22;19565;46.602;11.534;2022-11-04T15:57:50;10.40;99.90
33207;DHT22;19565;46.602;11.534;2022-11-04T16:00:21;10.40;99.90
33207;DHT22;19565;46.602;11.534;2022-11-04T16:02:53;10.00;99.90
33207;DHT22;19565;46.602;11.534;2022-11-04T16:05:25;9.90;99.90
33207;DHT22;19565;46.602;11.534;2022-11-04T16:07:55;9.80;99.90
33207;DHT22;19565;46.602;11.534;2022-11-04T16:11:07;10.00;99.90
33207;DHT22;19565;46.602;11.534;2022-11-04T16:13:36;10.10;99.90